LEBGLEVD

Guest
Details From LEBG - Burgos
To LEVD - Valladolid - Villanubla
Flight Number -
Tags generated
Created
Modified
Stats Distance 68 nm / 126 km
Max Altitude 300 ft / 91 m
Waypoints 3
Social Downloads 0
Likes 0
Share VATSIM

Download

Looking for another format? Having issues loading an existing format? Contact us
Advertisement - Login to hide

Notes

Basic altitude profile: - Ascent Rate: 2500ft/min - Ascent Speed: 250kts - Cruise Altitude: 35000ft - Cruise Speed: 420kts - Descent Rate: 1500ft/min - Descent Speed: 250kts Options: - Use NATs: yes - Use PACOTS: yes - Use low airways: yes - Use high airways: yes

Route

LEBG BGS LEVD

ID Type Via Altitude Latitude Longitude Leg Dist Tot Dist Heading (true) Name
O LEBG APT - 0 ft / 0 m 42.35689˚ -3.61422˚ - 0 nm - Burgos
BGS NDB - 300 ft / 91 m 42.35813˚ -3.63538˚ 0 nm 0 nm 275° / 275° BURGOS NDB
O LEVD APT - 0 ft / 0 m 41.70827˚ -4.85528˚ 66 nm 67 nm 235° / 234° Valladolid - Villanubla

Altitude Profile

Advertisement - Login to hide

LEBG

Details ICAO LEBG (RGS)
Name Burgos
Region Spain
Timezone Europe/Madrid (UTC+1.0)
Stats Elevation 2,961 ft / 903 m (AMSL)
Location 42.356895° -3.614221°
Runways 1
Magnetic Variation 0.787° W

METAR

LEBG 141500Z 25016KT 9999 SCT020 11/09 Q1014

Decode

TAF

Not found

Departure Runways

ID Width Length Bearing (true) Bearing (mag) Surface Threshold Offset Overrun Length
04 148 ft / 45 m 6,423 ft / 1,958 m 43.31° 44.10° Asphalt 0 ft / 0 m 0 ft / 0 m
22 148 ft / 45 m 6,423 ft / 1,958 m 223.32° 224.11° Asphalt 0 ft / 0 m 0 ft / 0 m

LEVD

Details ICAO LEVD (VLL)
Name Valladolid - Villanubla
Region Spain
Timezone Europe/Madrid (UTC+1.0)
Stats Elevation 2,775 ft / 846 m (AMSL)
Location 41.708270° -4.855278°
Runways 2
Magnetic Variation 1.131° W

METAR

LEVD 141500Z 26020KT 9999 BKN018 OVC022 12/09 Q1016

Decode

TAF

TAF LEVD 141100Z 1412/1512 25017KT 9999 BKN007 TX10/1415Z TN04/1506Z PROB30 TEMPO 1504/1510 3000 BR

Decode

Destination Runways

ID Width Length Bearing (true) Bearing (mag) Surface Threshold Offset Overrun Length
05 197 ft / 60 m 9,851 ft / 3,003 m 45.09° 46.22° Asphalt 0 ft / 0 m 676 ft / 206 m
15 197 ft / 60 m 2,975 ft / 907 m 144.18° 145.31° Dirt 0 ft / 0 m 213 ft / 65 m
23 197 ft / 60 m 9,851 ft / 3,003 m 225.10° 226.23° Asphalt 0 ft / 0 m 164 ft / 50 m
33 197 ft / 60 m 2,975 ft / 907 m 324.18° 325.31° Dirt 0 ft / 0 m 656 ft / 200 m

Approach Navaids

Runway Type Ident Frequency Range Bearing (true) Bearing (mag) Slope Elevation
23 Localiser IVD 109.30 MHz 18 nm / 33 km 225.13° 226.26° - 2,779 ft / 847 m (AMSL)
23 Glidescope IVD 109.30 MHz 10 nm / 19 km 225.10° 226.23° 2.80° 2,775 ft / 846 m (AMSL)

Popular Alternatives